Ortega (1243) Station Data

Red Flag Warning: No
Fire Weather Zone: 242
SDGE Region: Orange County
Lat/Lon: 33.57/-117.513

Observations

Time Wind Speed/Gust Temp(F) RH Fuel Moist Fuel Temp(F) Dewpt(F) Tmax(F) Tmin(F) Accum Precip 10-min Precip SL Press(mb)
2/27 11:40pm 223 3 G 7 49° 93% - - 47° 55.3° 45.8° - - 1015.0
2/27 11:20pm 237 6 G 11 49° 93% - - 47° 55.3° 45.8° - - 1015.0
2/27 11:10pm 238 5 G 10 49° 93% - - 47° 55.3° 45.8° - - 1015.0
2/27 11:00pm 241 5 G 10 49° 93% - - 47° 55.3° 45.8° - - 1015.0
2/27 10:50pm 228 3 G 9 49° 93% - - 47° 55.3° 45.8° - - 1014.0
2/27 10:40pm 239 4 G 8 49° 93% - - 47° 55.3° 45.8° - - 1014.0
2/27 10:30pm 242 5 G 11 50° 93% - - 47° 55.3° 45.8° - - 1014.0
2/27 10:20pm 235 5 G 11 50° 93% - - 48° 55.3° 45.8° - - 1014.0
2/27 10:10pm 224 5 G 8 50° 93% - - 48° 55.3° 45.8° - - 1014.0
2/27 10:00pm 225 7 G 10 50° 93% - - 48° 55.3° 45.8° - - 1014.0
2/27 9:50pm 229 5 G 9 50° 93% - - 48° 55.3° 45.8° - - 1014.0
2/27 9:40pm 228 4 G 7 50° 92% - - 48° 55.3° 45.8° - - 1015.0
2/27 9:30pm 240 3 G 6 50° 92% - - 48° 55.3° 45.8° - - 1014.0
2/27 9:20pm 271 2 G 5 50° 92% - - 48° 55.3° 45.8° - - 1014.0
2/27 9:10pm 138 0 G 2 50° 92% - - 48° 55.3° 45.8° - - 1014.0
2/27 9:00pm 130 0 G 2 50° 92% - - 48° 55.3° 45.8° - - 1014.0
2/27 8:50pm 201 1 G 3 50° 92% - - 48° 55.3° 45.8° - - 1014.0
2/27 8:40pm 86 1 G 2 50° 92% - - 48° 55.3° 45.8° - - 1014.0
2/27 8:30pm 322 0 G 1 50° 92% - - 48° 55.3° 45.8° - - 1014.0
2/27 8:20pm 61 1 G 3 50° 92% - - 48° 55.3° 45.8° - - 1014.0
2/27 8:10pm 198 1 G 2 50° 92% - - 48° 55.3° 45.8° - - 1014.0
2/27 8:00pm 121 1 G 3 51° 92% - - 48° 55.3° 45.8° - - 1014.0
2/27 7:50pm 193 1 G 4 51° 92% - - 48° 55.3° 45.8° - - 1014.0
2/27 7:40pm 220 2 G 5 51° 92% - - 48° 55.3° 45.8° - - 1014.0
2/27 7:30pm 226 2 G 6 50° 92% - - 48° 55.3° 45.8° - - 1014.0
2/27 7:20pm 226 1 G 3 51° 92% - - 48° 55.3° 45.8° - - 1014.0
2/27 7:10pm 216 2 G 5 51° 92% - - 49° 55.3° 45.8° - - 1014.0
2/27 7:00pm 168 0 G 1 51° 92% - - 49° 55.3° 45.8° - - 1014.0
2/27 6:50pm 258 1 G 4 51° 92% - - 49° 55.3° 45.8° - - 1014.0
2/27 6:40pm 219 2 G 4 51° 92% - - 49° 55.3° 45.8° - - 1014.0
2/27 6:30pm 309 2 G 4 51° 92% - - 49° 55.3° 45.8° - - 1014.0
2/27 6:20pm 308 2 G 4 51° 92% - - 49° 55.3° 45.8° - - 1014.0
2/27 6:10pm 262 3 G 7 51° 92% - - 49° 55.3° 45.8° - - 1014.0
2/27 6:00pm 228 5 G 9 51° 92% - - 49° 55.3° 45.8° - - 1014.0
2/27 5:50pm 229 3 G 5 51° 92% - - 49° 55.3° 45.8° - - 1014.0
2/27 5:40pm 231 3 G 5 51° 92% - - 49° 55.3° 45.8° - - 1014.0
2/27 5:30pm 200 1 G 2 51° 92% - - 49° 55.3° 45.8° - - 1014.0
2/27 5:20pm 185 2 G 4 51° 92% - - 49° 55.3° 45.8° - - 1014.0
2/27 5:10pm 219 3 G 5 51° 92% - - 49° 55.3° 45.8° - - 1014.0
2/27 5:00pm 218 3 G 6 52° 92% - - 49° 55.3° 45.8° - - 1014.0
2/27 4:50pm 217 1 G 4 51° 92% - - 49° 55.3° 45.8° - - 1013.0
2/27 4:40pm 240 1 G 3 51° 92% - - 49° 55.3° 45.8° - - 1013.0
2/27 4:30pm 289 2 G 3 51° 92% - - 49° 55.3° 45.8° - - 1013.0
2/27 4:20pm 224 4 G 8 52° 92% - - 49° 55.3° 45.8° - - 1014.0
2/27 4:10pm 241 2 G 5 52° 92% - - 49° 55.3° 45.8° - - 1014.0
2/27 4:00pm 243 4 G 9 52° 92% - - 49° 55.3° 45.8° - - 1014.0
2/27 3:50pm 230 7 G 13 52° 92% - - 50° 55.3° 45.8° - - 1013.0
2/27 3:40pm 216 4 G 7 53° 92% - - 50° 55.3° 45.8° - - 1013.0
2/27 3:30pm 217 3 G 5 53° 92% - - 50° 55.3° 45.8° - - 1013.0
2/27 3:20pm 247 2 G 6 53° 91% - - 51° 55.3° 45.8° - - 1013.0
2/27 3:10pm 220 3 G 7 53° 91% - - 51° 55.3° 45.8° - - 1013.0
2/27 3:00pm 270 5 G 9 53° 91% - - 51° 55.3° 45.8° - - 1013.0
2/27 2:50pm 253 5 G 10 53° 91% - - 51° 55.3° 45.8° - - 1013.0
2/27 2:40pm 222 4 G 9 54° 91% - - 52° 55.3° 45.8° - - 1013.0
2/27 2:30pm 210 3 G 8 54° 91% - - 52° 55.3° 45.8° - - 1013.0
2/27 2:20pm 233 6 G 12 54° 90% - - 52° 55.3° 45.8° - - 1013.0
2/27 2:10pm 172 2 G 5 55° 90% - - 52° 55.3° 45.8° - - 1013.0
2/27 2:00pm 166 3 G 7 55° 90% - - 52° 55.3° 45.8° - - 1013.0
2/27 1:50pm 150 3 G 8 55° 90% - - 52° 55.3° 45.8° - - 1013.0
2/27 1:40pm 225 3 G 11 55° 90% - - 52° 55.3° 45.8° - - 1013.0
2/27 1:30pm 178 4 G 7 55° 90% - - 52° 55.3° 45.8° - - 1013.0
2/27 1:20pm 187 2 G 8 55° 90% - - 52° 55.3° 45.8° - - 1014.0
2/27 1:10pm 154 2 G 6 55° 89% - - 52° 55.3° 45.8° - - 1014.0
2/27 1:00pm 183 2 G 6 55° 89% - - 52° 55.2° 45.8° - - 1014.0
2/27 12:50pm 212 3 G 7 55° 89% - - 52° 55.2° 45.8° - - 1014.0
2/27 12:40pm 217 2 G 6 55° 88% - - 51° 55.2° 45.8° - - 1014.0
2/27 12:30pm 162 4 G 9 55° 88% - - 51° 55.2° 45.8° - - 1014.0
2/27 12:20pm 155 3 G 8 54° 89% - - 51° 55.2° 45.8° - - 1015.0
2/27 12:10pm 180 5 G 12 54° 89% - - 51° 55.2° 45.8° - - 1015.0
2/27 12:00pm 156 3 G 9 54° 90% - - 51° 55.2° 45.8° - - 1015.0
2/27 11:50am 167 3 G 7 54° 90% - - 51° 55.2° 45.8° - - 1015.0
2/27 11:40am 180 3 G 8 54° 90% - - 52° 55.2° 45.8° - - 1015.0
2/27 11:30am 141 2 G 5 54° 91% - - 51° 55.2° 45.8° - - 1015.0
2/27 11:20am 175 3 G 6 54° 91% - - 51° 55.2° 45.8° - - 1016.0
2/27 11:10am 210 2 G 6 54° 91% - - 51° 55.2° 45.8° - - 1016.0
2/27 11:00am 270 4 G 8 54° 90% - - 51° 55.2° 45.8° - - 1016.0
2/27 10:50am 256 5 G 8 54° 89% - - 51° 55.2° 45.8° - - 1016.0
2/27 10:40am 253 5 G 8 54° 88% - - 51° 55.2° 45.8° - - 1016.0
2/27 10:30am 239 3 G 6 55° 87% - - 51° 55.2° 45.8° - - 1015.0
2/27 10:20am 251 2 G 4 55° 88% - - 51° 55.2° 45.8° - - 1015.0
2/27 10:10am 248 1 G 3 55° 88% - - 51° 55.1° 45.8° - - 1015.0
2/27 10:00am 133 0 G 1 54° 87% - - 51° 55° 45.8° - - 1015.0
2/27 9:50am 127 1 G 2 54° 86% - - 51° 55° 45.8° - - 1015.0
2/27 9:40am 245 1 G 2 55° 86% - - 51° 55° 45.8° - - 1016.0
2/27 9:30am 224 0 G 1 55° 86% - - 51° 55° 45.8° - - 1016.0
2/27 9:20am 203 0 G 1 54° 87% - - 51° 54.7° 45.8° - - 1016.0
2/27 9:10am 174 1 G 2 54° 87% - - 50° 54.3° 45.8° - - 1016.0
2/27 9:00am 267 1 G 2 54° 87% - - 50° 54.3° 45.8° - - 1016.0
2/27 8:50am 174 0 G 1 54° 86% - - 50° 54.3° 45.8° - - 1015.0
2/27 8:40am 246 0 G 1 54° 86% - - 50° 54.1° 45.8° - - 1015.0
2/27 8:30am 157 0 G 1 54° 85% - - 49° 54.1° 45.8° - - 1015.0
2/27 8:20am 57 1 G 2 53° 85% - - 49° 53.7° 45.8° - - 1015.0
2/27 8:10am 23 2 G 3 52° 87% - - 48° 53° 45.8° - - 1015.0
2/27 8:00am 24 0 G 1 51° 87% - - 47° 53° 45.8° - - 1015.0
2/27 7:50am 91 1 G 2 51° 86% - - 47° 53° 45.8° - - 1015.0
2/27 7:40am 110 1 G 2 53° 84% - - 48° 53° 45.8° - - 1015.0
2/27 7:30am 41 2 G 5 52° 85% - - 48° 52.9° 45.8° - - 1015.0
2/27 7:20am 50 3 G 6 51° 87% - - 48° 51.8° 45.8° - - 1015.0
2/27 7:10am 65 4 G 6 51° 88% - - 47° 50.9° 45.8° - - 1015.0
2/27 7:00am 59 5 G 8 50° 89% - - 47° 50.6° 45.8° - - 1015.0
2/27 6:50am 56 3 G 5 50° 89% - - 47° 50.5° 45.8° - - 1015.0
2/27 6:40am 50 3 G 5 50° 90% - - 47° 50.4° 45.8° - - 1015.0
2/27 6:30am 58 3 G 5 50° 90% - - 47° 50° 45.8° - - 1015.0
2/27 6:20am 48 3 G 5 50° 90% - - 47° 50° 45.8° - - 1015.0
2/27 6:10am 68 2 G 4 50° 90% - - 47° 50° 45.8° - - 1015.0
2/27 6:00am 58 3 G 5 50° 90% - - 47° 50° 45.8° - - 1015.0
2/27 5:50am 55 5 G 7 49° 89% - - 46° 49.5° 45.8° - - 1015.0
2/27 5:40am 61 5 G 7 49° 89% - - 46° 49.5° 45.8° - - 1015.0
2/27 5:30am 61 6 G 8 49° 89% - - 46° 49.5° 45.8° - - 1015.0
2/27 5:20am 61 6 G 9 49° 89% - - 46° 49.1° 45.8° - - 1015.0
2/27 5:10am 67 7 G 9 49° 89% - - 46° 48.9° 45.8° - - 1015.0
2/27 5:00am 70 5 G 8 49° 89% - - 45° 48.8° 45.8° - - 1015.0
2/27 4:50am 64 3 G 5 48° 89% - - 45° 48.6° 45.8° - - 1016.0
2/27 4:40am 56 4 G 7 48° 89% - - 45° 48.6° 45.8° - - 1016.0
2/27 4:30am 65 5 G 8 48° 89% - - 45° 48.6° 45.8° - - 1016.0
2/27 4:20am 69 5 G 7 47° 88% - - 44° 48.6° 45.8° - - 1016.0
2/27 4:10am 69 4 G 7 47° 88% - - 44° 48.6° 45.8° - - 1016.0
2/27 4:00am 63 5 G 6 47° 88% - - 43° 48.6° 45.8° - - 1016.0
2/27 3:50am 60 4 G 6 47° 87% - - 43° 48.6° 45.8° - - 1016.0
2/27 3:40am 70 5 G 8 46° 86% - - 42° 48.6° 45.8° - - 1016.0
2/27 3:30am 73 5 G 8 46° 85% - - 42° 48.6° 45.8° - - 1016.0
2/27 3:20am 66 5 G 8 46° 83% - - 42° 48.6° 45.8° - - 1016.0
2/27 3:10am 65 5 G 9 47° 81% - - 41° 48.6° 45.8° - - 1017.0
2/27 3:00am 72 6 G 8 47° 79% - - 41° 48.6° 45.8° - - 1017.0
2/27 2:50am 84 5 G 9 47° 76% - - 40° 48.6° 45.8° - - 1017.0
2/27 2:40am 82 6 G 10 47° 74% - - 39° 48.6° 45.8° - - 1017.0
2/27 2:30am 80 6 G 10 48° 71% - - 39° 48.6° 45.8° - - 1017.0
2/27 2:20am 65 6 G 9 48° 69% - - 38° 48.6° 45.8° - - 1017.0
2/27 2:10am 62 6 G 10 48° 69% - - 39° 48.6° 45.8° - - 1017.0
2/27 2:00am 70 6 G 11 48° 71% - - 39° 48.3° 45.8° - - 1017.0
2/27 1:50am 65 8 G 11 48° 72% - - 39° 48.2° 45.8° - - 1018.0
2/27 1:40am 72 6 G 10 48° 71% - - 39° 48.1° 45.8° - - 1018.0
2/27 1:30am 73 6 G 10 47° 75% - - 39° 47.5° 45.8° - - 1018.0
2/27 1:20am 67 4 G 7 47° 77% - - 40° 47.3° 45.8° - - 1018.0
2/27 1:10am 57 4 G 7 46° 77% - - 40° 47.3° 45.8° - - 1018.0
2/27 1:00am 59 4 G 6 46° 76% - - 39° 47.3° 45.8° - - 1019.0
2/27 12:50am 55 5 G 7 47° 73% - - 39° 47.3° 45.8° - - 1019.0
2/27 12:40am 54 5 G 9 47° 74% - - 39° 47° 45.8° - - 1019.0
2/27 12:30am 64 4 G 6 46° 76% - - 39° 46.7° 45.8° - - 1019.0
2/27 12:20am 64 4 G 5 46° 77% - - 39° 46.7° 45.9° - - 1019.0
2/27 12:10am 62 4 G 7 46° 79% - - 40° 46.7° 45.9° - - 1019.0
2/27 12:00am 52 5 G 7 46° 79% - - 40° 54.1° 45.4° - - 1019.0
2/26 11:50pm 49 4 G 7 47° 77% - - 40° 54.1° 45.4° - - 1019.0
2/26 11:40pm 43 6 G 8 47° 76% - - 40° 54.1° 45.4° - - 1019.0
2/26 11:30pm 43 4 G 7 47° 77% - - 40° 54.1° 45.4° - - 1019.0
2/26 11:20pm 38 4 G 6 47° 74% - - 40° 54.1° 45.4° - - 1019.0
2/26 11:10pm 40 4 G 6 47° 78% - - 40° 54.1° 45.4° - - 1019.0
2/26 11:00pm 56 4 G 6 46° 79% - - 40° 54.1° 45.4° - - 1019.0
2/26 10:50pm 53 5 G 6 46° 79% - - 40° 54.1° 45.4° - - 1019.0
2/26 10:40pm 52 4 G 6 46° 79% - - 40° 54.1° 45.4° - - 1019.0
2/26 10:30pm 51 4 G 6 47° 77% - - 40° 54.1° 45.4° - - 1019.0
2/26 10:20pm 50 4 G 5 47° 81% - - 41° 54.1° 45.4° - - 1019.0
2/26 10:10pm 54 4 G 6 47° 81% - - 41° 54.1° 45.4° - - 1019.0
2/26 10:00pm 53 4 G 5 47° 81% - - 41° 54.1° 45.4° - - 1019.0
2/26 9:50pm 50 4 G 5 47° 78% - - 41° 54.1° 45.4° - - 1019.0
2/26 9:40pm 46 4 G 5 47° 77% - - 40° 54.1° 45.4° - - 1019.0
2/26 9:30pm 46 4 G 6 47° 81% - - 41° 54.1° 45.4° - - 1019.0
2/26 9:20pm 46 4 G 6 47° 79% - - 41° 54.1° 45.4° - - 1019.0
2/26 9:10pm 40 5 G 7 47° 80% - - 41° 54.1° 45.4° - - 1019.0
2/26 9:00pm 42 5 G 7 47° 79% - - 41° 54.1° 45.4° - - 1019.0
2/26 8:50pm 37 5 G 7 47° 81% - - 41° 54.1° 45.4° - - 1019.0
2/26 8:40pm 35 5 G 7 47° 81% - - 41° 54.1° 45.4° - - 1020.0
2/26 8:30pm 41 6 G 7 46° 83% - - 41° 54.1° 45.4° - - 1020.0
2/26 8:20pm 51 5 G 6 47° 81% - - 41° 54.1° 45.4° - - 1019.0
2/26 8:10pm 44 5 G 6 47° 81% - - 42° 54.1° 45.4° - - 1019.0
2/26 8:00pm 71 2 G 4 48° 78% - - 41° 54.1° 45.4° - - 1019.0
2/26 7:50pm 95 3 G 4 48° 77% - - 41° 54.1° 45.4° - - 1019.0
2/26 7:40pm 141 3 G 6 48° 76% - - 41° 54.1° 45.4° - - 1019.0
2/26 7:30pm 164 3 G 5 48° 78% - - 41° 54.1° 45.4° - - 1019.0
2/26 7:20pm 169 2 G 3 48° 77% - - 41° 54.1° 45.4° - - 1019.0
2/26 7:10pm 159 2 G 3 48° 77% - - 41° 54.1° 45.4° - - 1019.0
2/26 7:00pm 185 2 G 4 48° 77% - - 41° 54.1° 45.4° - - 1019.0
2/26 6:50pm 162 2 G 4 48° 78% - - 42° 54.1° 45.4° - - 1019.0
2/26 6:40pm 123 2 G 5 48° 79% - - 42° 54.1° 45.4° - - 1019.0
2/26 6:30pm 126 2 G 3 48° 79% - - 42° 54.1° 45.4° - - 1019.0
2/26 6:20pm 130 2 G 4 48° 79% - - 42° 54.1° 45.4° - - 1019.0
2/26 6:10pm 180 2 G 4 48° 77% - - 42° 54.1° 45.4° - - 1019.0
2/26 6:00pm 228 2 G 5 48° 77% - - 41° 54.1° 45.4° - - 1018.0
2/26 5:50pm 227 3 G 7 48° 76% - - 41° 54.1° 45.4° - - 1018.0
2/26 5:40pm 222 3 G 8 49° 75% - - 41° 54.1° 45.4° - - 1018.0
2/26 5:30pm 228 5 G 8 49° 72% - - 41° 54.1° 45.4° - - 1018.0
2/26 5:20pm 227 5 G 8 50° 75% - - 42° 54.1° 45.4° - - 1018.0
2/26 5:10pm 224 2 G 5 50° 79% - - 44° 54.1° 45.4° - - 1018.0
2/26 5:00pm 264 2 G 5 50° 81% - - 45° 54.1° 45.4° - - 1018.0